• Join FlightAware (Why Join?)
  • Login
  • US Flag 
12:40PM EST


 

Airport Tracker/Info


-or-


 

Live Flight TrackerFlight Track Log ✈ EGF2827 ✈ 23-Jun-2013 ✈ KSYR - KORD

Flight Track Log - Related Links

Times and Time Zones

All times are in EDT time to prevent confusion due to time zone crossing. See the EGF2827 flight status page for this flight to view local times or setup timezone preferences in your user account.

Time Position Orientation Groundspeed Altitude Reporting Facility
EDT Latitude Longitude Course Direction KTS MPH feet Rate Location/Type
07:08AM 43.1069 -76.1489 286° West 164 189 1,300  Level Boston Center
07:09AM 43.1214 -76.2208 285° West 193 222 4,200 2,400 Climbing Boston Center
07:10AM 43.1990 -76.4490 324° Northwest  Level FlightAware Approximate
07:10AM 43.1481 -76.2939 297° West 221 254 6,400  Level Boston Center
07:11AM 43.2109 -76.5765 281° West  Level FlightAware Approximate
07:12AM 43.2350 -76.7018 286° West  Level FlightAware Approximate
07:12AM 43.1833 -76.4167 292° West 350 403 10,000  Level Toronto Center
07:13AM 43.2616 -76.8263 286° West  Level FlightAware Approximate
07:13AM 43.2000 -76.5167 283° West 290 334 11,200  Level Toronto Center
07:14AM 43.2436 -76.7069 288° West 329 379 13,600 1,800 Climbing Cleveland Center
07:15AM 43.2669 -76.8453 283° West 359 413 15,200 1,500 Climbing Cleveland Center
07:16AM 43.2881 -76.9839 282° West 373 429 16,700 1,320 Climbing Cleveland Center
07:17AM 43.3083 -77.1081 283° West 378 435 17,900 1,380 Climbing Cleveland Center
07:18AM 43.2981 -77.2486 264° West 373 429 19,500 1,680 Climbing Cleveland Center
07:19AM 43.2753 -77.4039 259° West 375 432 21,300 1,620 Climbing Cleveland Center
07:20AM 43.2539 -77.5417 258° West 380 437 22,800 1,500 Climbing Cleveland Center
07:21AM 43.2367 -77.6794 260° West 374 430 24,300 1,500 Climbing Cleveland Center
07:22AM 43.2172 -77.8200 259° West 374 430 25,800 1,500 Climbing Cleveland Center
07:23AM 43.1994 -77.9603 260° West 374 430 27,300 1,500 Climbing Cleveland Center
07:24AM 43.1797 -78.0978 259° West 374 430 28,800 1,500 Climbing Cleveland Center
07:25AM 43.1597 -78.2353 259° West 374 430 30,300 1,500 Climbing Cleveland Center
07:26AM 43.1414 -78.3725 260° West 374 430 31,800 840 Climbing Cleveland Center
07:27AM 43.1378 -78.5119 268° West 369 425 32,000 720 Climbing Cleveland Center
07:28AM 43.1342 -78.6600 268° West 379 436 33,300 1,320 Climbing Cleveland Center
07:29AM 43.1300 -78.7997 268° West 384 442 34,700 1,080 Climbing Cleveland Center
07:30AM 43.1258 -78.9419 268° West 384 442 35,500 600 Climbing Cleveland Center
07:31AM 43.1194 -79.0872 267° West 384 442 35,900 240 Climbing Cleveland Center
07:32AM 43.1172 -79.2381 269° West 389 448 36,000  Climbing Cleveland Center
07:33AM 43.1000 -79.4000 262° West 420 483 36,000  Level Toronto Center
07:34AM 43.1000 -79.5667 270° West 440 506 36,000  Level Toronto Center
07:35AM 43.0833 -79.7500 263° West 450 518 36,000  Level Toronto Center
07:36AM 43.0833 -79.9000 270° West 450 518 36,000  Level Toronto Center
07:37AM 43.0833 -80.0667 270° West 440 506 36,000  Level Toronto Center
07:38AM 43.0667 -80.2500 263° West 440 506 36,000  Level Toronto Center
07:39AM 43.0667 -80.4167 270° West 440 506 36,000  Level Toronto Center
07:40AM 43.0500 -80.5833 262° West 460 529 36,000  Level Toronto Center
07:41AM 43.0500 -80.7500 270° West 450 518 36,000  Level Toronto Center
07:42AM 43.0333 -80.9333 263° West 450 518 36,000  Level Toronto Center
07:43AM 43.0167 -81.1167 263° West 450 518 36,000  Level Toronto Center
07:44AM 43.0167 -81.2667 270° West 460 529 36,000  Level Toronto Center
07:45AM 43.0167 -81.4500 270° West 450 518 36,000  Level Toronto Center
07:46AM 43.0167 -81.6167 270° West 450 518 36,000  Level Toronto Center
07:47AM 43.0167 -81.8000 270° West 450 518 36,000  Level Toronto Center
07:48AM 43.0000 -81.9667 262° West 450 518 36,000  Level Toronto Center
07:49AM 43.0000 -82.1333 270° West 460 529 36,000  Level Toronto Center
07:50AM 43.0000 -82.3000 270° West 460 529 36,000  Level Toronto Center
07:51AM 43.0000 -82.4833 270° West 450 518 36,000  Level Toronto Center
07:52AM 42.9833 -82.6500 262° West 450 518 36,000  Level Toronto Center
07:53AM 42.9833 -82.8167 270° West 450 518 36,000  Level Toronto Center
07:54AM 42.9833 -82.9833 270° West 460 529 36,000 -300 Level Toronto Center
07:55AM 42.9833 -83.1667 270° West 450 518 35,400 -1,200 Descending Toronto Center
07:56AM 42.9667 -83.3500 263° West 450 518 33,600 -1,740 Descending Toronto Center
07:57AM 42.9667 -83.5000 270° West 450 518 32,000 -840 Descending Toronto Center
07:58AM 42.9667 -83.6833 270° West 450 518 32,000  Level Toronto Center
07:59AM 42.9500 -83.8500 262° West 460 529 32,000  Level Toronto Center
08:00AM 42.9483 -83.9383 269° West 457 526 32,000  Level Chicago Center
08:00AM 42.9317 -84.1025 262° West 462 532 32,000  Level Cleveland Center
08:01AM 42.9136 -84.2772 262° West 462 532 32,000  Level Cleveland Center
08:02AM 42.9006 -84.4267 263° West 462 532 32,000  Level Cleveland Center
08:04AM 42.8758 -84.6617 262° West 457 526 32,000  Level Chicago Center
08:05AM 42.8575 -84.8336 262° West 458 527 32,000  Level Chicago Center
08:06AM 42.8394 -85.0050 262° West 459 528 32,000 -60 Level Chicago Center
08:07AM 42.8219 -85.1781 262° West 461 531 31,900 -1,020 Descending Chicago Center
08:08AM 42.8022 -85.3506 261° West 460 529 30,000 -1,920 Descending Chicago Center
08:09AM 42.7828 -85.5244 261° West 464 534 28,000 -1,980 Descending Chicago Center
08:10AM 42.7519 -85.6903 256° West 454 522 26,000 -1,980 Descending Chicago Center
08:11AM 42.7200 -85.8614 256° West 459 528 24,000 -1,980 Descending Chicago Center
08:12AM 42.6906 -86.0247 256° West 449 517 22,000 -1,920 Descending Chicago Center
08:13AM 42.6619 -86.1828 256° West 434 499 20,100 -1,380 Descending Chicago Center
08:14AM 42.6347 -86.3300 256° West 409 471 19,200 -1,380 Descending Chicago Center
08:15AM 42.6064 -86.4781 255° West 404 465 17,300 -2,160 Descending Chicago Center
08:16AM 42.5742 -86.6481 256° West 391 450 14,800 -2,220 Descending Chicago Center
08:17AM 42.5458 -86.7867 255° West 385 443 12,800 -1,980 Descending Chicago Center
08:18AM 42.5086 -86.9150 249° West 372 428 10,800 -1,380 Descending Chicago Center
08:19AM 42.4767 -87.0372 251° West 348 400 10,000 -600 Descending Chicago Center
08:20AM 42.4422 -87.1578 249° West 346 398 9,700 -480 Descending Chicago Center
08:21AM 42.4150 -87.2572 250° West 277 319 9,100 -360 Descending Chicago Center
08:22AM 42.3894 -87.3494 249° West 264 304 9,000 -60 Descending Chicago Center
08:23AM 42.3569 -87.4561 248° West 268 308 9,000  Level Chicago Center
08:24AM 42.3258 -87.5447 245° Southwest 265 305 9,000 -360 Level Chicago Center
08:25AM 42.2628 -87.5981 212° Southwest 267 307 8,300 -1,140 Descending Chicago Center
08:26AM 42.2092 -87.6614 221° Southwest 258 297 6,700 -1,680 Descending Chicago Center
08:27AM 42.1614 -87.7153 220° Southwest 228 262 4,900 -1,800 Descending Chicago Center